.
WxDataArchive / Data Records for 2007-04-10
2007-04-09 April 2007 2007-04-11

Data Records for Tuesday, 10 April 2007

Time	Temp	Chill	HIndex	Humid	Dewpt	 Wind 	HiWind	WindDir	Rain 	Barom 
-----	----	-----	------	-----	-----	------	------	-------	-----	----- 
00:00	29.7	29.7	29.7	90	27.1	0	0	---	0.00	30.058 
00:05	29.5	29.5	29.5	90	26.9	0	0	---	0.00	30.061 
00:10	29.5	29.5	29.5	90	26.9	0	0	---	0.00	30.061 
00:15	29.4	29.4	29.4	90	26.8	0	0	---	0.00	30.061 
00:20	29.1	29.1	29.1	90	26.5	0	0	---	0.00	30.062 
00:25	29.1	29.1	29.1	90	26.5	0	0	---	0.00	30.062 
00:30	29.0	29.0	29.0	91	26.7	0	0	---	0.00	30.061 
00:35	28.8	28.8	28.8	91	26.5	0	0	---	0.00	30.061 
00:40	28.7	28.7	28.7	91	26.4	0	0	---	0.00	30.060 
00:45	28.7	28.7	28.7	91	26.4	0	0	---	0.00	30.059 
00:50	28.7	28.7	28.7	91	26.4	0	0	---	0.00	30.058 
00:55	28.5	28.5	28.5	91	26.2	0	0	---	0.00	30.058 
01:00	28.4	28.4	28.4	91	26.1	0	0	---	0.00	30.059 
01:05	28.2	28.2	28.2	91	25.9	0	0	---	0.00	30.053 
01:10	28.1	28.1	28.1	91	25.8	0	0	---	0.00	30.054 
01:15	27.9	27.9	27.9	92	25.9	0	0	---	0.00	30.053 
01:20	27.8	27.8	27.8	92	25.8	0	0	---	0.00	30.052 
01:25	27.8	27.8	27.8	92	25.8	0	0	---	0.00	30.053 
01:30	27.8	27.8	27.8	92	25.8	0	0	---	0.00	30.052 
01:35	27.8	27.8	27.8	92	25.8	0	0	---	0.00	30.053 
01:40	27.8	27.8	27.8	92	25.8	0	0	---	0.00	30.053 
01:45	27.6	27.6	27.6	92	25.6	0	0	---	0.00	30.054 
01:50	27.6	27.6	27.6	92	25.6	0	0	---	0.00	30.054 
01:55	27.5	27.5	27.5	92	25.5	0	0	---	0.00	30.054 
02:00	27.5	27.5	27.5	92	25.5	0	0	---	0.00	30.054 
02:05	27.3	27.3	27.3	92	25.3	0	0	---	0.00	30.050 
02:10	27.2	27.2	27.2	92	25.2	0	0	---	0.00	30.046 
02:15	27.0	27.0	27.0	92	25.0	0	0	---	0.00	30.045 
02:20	27.0	27.0	27.0	92	25.0	0	0	---	0.00	30.045 
02:25	26.9	26.9	26.9	92	24.9	0	0	---	0.00	30.045 
02:30	26.6	26.6	26.6	92	24.6	0	0	---	0.00	30.046 
02:35	26.6	26.6	26.6	92	24.6	0	0	---	0.00	30.048 
02:40	26.4	26.4	26.4	92	24.4	0	0	---	0.00	30.048 
02:45	26.4	26.4	26.4	92	24.4	0	0	---	0.00	30.050 
02:50	26.4	26.4	26.4	92	24.4	0	0	---	0.00	30.051 
02:55	26.1	26.1	26.1	92	24.1	0	0	---	0.00	30.053 
03:00	26.0	26.0	26.0	92	24.0	0	0	---	0.00	30.050 
03:05	25.8	25.8	25.8	92	23.8	0	0	---	0.00	30.054 
03:10	25.8	25.8	25.8	92	23.8	0	0	---	0.00	30.056 
03:15	25.7	25.7	25.7	92	23.7	0	0	---	0.00	30.056 
03:20	25.6	25.6	25.6	92	23.6	0	0	---	0.00	30.056 
03:25	25.4	25.4	25.4	92	23.4	0	0	---	0.00	30.058 
03:30	25.3	25.3	25.3	92	23.3	0	0	---	0.00	30.058 
03:35	25.1	25.1	25.1	92	23.1	0	0	---	0.00	30.059 
03:40	25.0	25.0	25.0	92	23.0	0	0	---	0.00	30.060 
03:45	24.8	24.8	24.8	92	22.8	0	0	---	0.00	30.061 
03:50	24.8	24.8	24.8	92	22.8	0	0	---	0.00	30.061 
03:55	24.7	24.7	24.7	92	22.7	0	0	---	0.00	30.061 
04:00	24.7	24.7	24.7	92	22.7	0	0	---	0.00	30.062 
04:05	24.5	24.5	24.5	92	22.5	0	0	---	0.00	30.063 
04:10	24.4	24.4	24.4	92	22.4	0	0	---	0.00	30.063 
04:15	24.2	24.2	24.2	92	22.2	0	0	---	0.00	30.064 
04:20	24.1	24.1	24.1	92	22.1	0	0	---	0.00	30.065 
04:25	23.9	23.9	23.9	92	21.9	0	0	---	0.00	30.066 
04:30	23.9	23.9	23.9	92	21.9	0	0	---	0.00	30.066 
04:35	23.8	23.8	23.8	92	21.8	0	0	---	0.00	30.064 
04:40	23.8	23.8	23.8	92	21.8	0	0	---	0.00	30.063 
04:45	23.6	23.6	23.6	92	21.6	0	0	---	0.00	30.063 
04:50	23.6	23.6	23.6	92	21.6	0	0	---	0.00	30.063 
04:55	23.6	23.6	23.6	92	21.6	0	0	---	0.00	30.064 
05:00	23.5	23.5	23.5	92	21.5	0	0	---	0.00	30.065 
05:05	23.5	23.5	23.5	92	21.5	0	0	---	0.00	30.065 
05:10	23.3	23.3	23.3	92	21.3	0	0	---	0.00	30.072 
05:15	23.3	23.3	23.3	92	21.3	0	0	---	0.00	30.075 
05:20	23.2	23.2	23.2	92	21.2	0	0	---	0.00	30.079 
05:25	23.2	23.2	23.2	92	21.2	0	0	---	0.00	30.078 
05:30	23.0	23.0	23.0	92	21.0	0	0	---	0.00	30.079 
05:35	23.0	23.0	23.0	92	21.0	0	0	---	0.00	30.079 
05:40	22.9	22.9	22.9	92	20.9	0	0	---	0.00	30.077 
05:45	22.9	22.9	22.9	92	20.9	0	0	---	0.00	30.075 
05:50	22.7	22.7	22.7	92	20.7	0	0	---	0.00	30.074 
05:55	22.5	22.5	22.5	92	20.5	0	0	---	0.00	30.074 
06:00	22.2	22.2	22.2	91	20.0	0	0	---	0.00	30.078 
06:05	22.2	22.2	22.2	91	20.0	0	0	---	0.00	30.081 
06:10	22.2	22.2	22.2	92	20.2	0	0	---	0.00	30.083 
06:15	22.2	22.2	22.2	92	20.2	0	0	---	0.00	30.085 
06:20	22.2	22.2	22.2	92	20.2	0	0	---	0.00	30.085 
06:25	22.2	22.2	22.2	92	20.2	0	0	---	0.00	30.086 
06:30	22.2	22.2	22.2	92	20.2	0	0	---	0.00	30.087 
06:35	22.2	22.2	22.2	92	20.2	0	0	---	0.00	30.091 
06:40	22.4	22.4	22.4	92	20.4	0	0	---	0.00	30.095 
06:45	22.5	22.5	22.5	92	20.5	0	0	---	0.00	30.097 
06:50	22.9	22.9	22.9	92	20.9	0	0	---	0.00	30.096 
06:55	23.3	23.3	23.3	92	21.3	0	0	---	0.00	30.097 
07:00	23.8	23.8	23.8	92	21.8	0	0	---	0.00	30.103 
07:05	24.4	24.4	24.4	93	22.7	0	0	---	0.00	30.104 
07:10	25.3	25.3	25.3	94	23.8	0	0	---	0.00	30.102 
07:15	26.1	26.1	26.1	94	24.6	0	0	---	0.00	30.104 
07:20	26.9	26.9	26.9	94	25.4	0	0	---	0.00	30.104 
07:25	27.8	27.8	27.8	95	26.6	0	0	---	0.00	30.106 
07:30	29.3	29.3	29.3	96	28.3	0	0	---	0.00	30.104 
07:35	30.6	30.6	30.6	96	29.6	0	0	---	0.00	30.106 
07:40	31.0	31.0	31.0	95	29.7	0	1	315	0.00	30.103 
07:45	31.8	31.8	31.8	95	30.5	0	2	315	0.00	30.103 
07:50	32.1	32.1	32.1	93	30.3	0	2	315	0.00	30.106 
07:55	32.5	32.5	32.5	91	30.2	0	1	315	0.00	30.107 
08:00	33.1	33.1	33.1	90	30.5	0	1	315	0.00	30.106 
08:05	33.7	33.7	33.7	87	30.3	1	2	315	0.00	30.110 
08:10	33.8	33.8	33.8	86	30.1	1	2	0	0.00	30.107 
08:15	34.4	34.4	34.4	86	30.7	0	2	22	0.00	30.106 
08:20	34.7	34.7	34.7	84	30.4	1	2	22	0.00	30.104 
08:25	35.3	35.3	35.3	83	30.7	1	2	22	0.00	30.105 
08:30	35.9	35.9	35.9	79	30.0	1	2	22	0.00	30.103 
08:35	36.6	36.6	36.6	81	31.3	0	2	22	0.00	30.105 
08:40	37.2	37.2	37.2	77	30.7	0	2	22	0.00	30.103 
08:45	37.3	37.3	37.3	74	29.8	1	3	22	0.00	30.102 
08:50	37.5	37.5	37.5	75	30.3	1	3	22	0.00	30.103 
08:55	37.8	37.8	37.8	73	29.9	1	3	45	0.00	30.101 
09:00	38.0	38.0	38.0	71	29.4	1	3	45	0.00	30.102 
09:05	39.1	39.1	39.1	69	29.8	1	4	90	0.00	30.100 
09:10	39.6	39.6	39.6	68	29.9	1	4	90	0.00	30.100 
09:15	40.3	40.3	40.3	66	29.9	1	4	112	0.00	30.099 
09:20	41.1	41.1	41.1	64	29.9	1	4	112	0.00	30.098 
09:25	41.5	41.5	41.5	63	29.9	1	5	112	0.00	30.098 
09:30	41.1	41.1	41.1	63	29.5	2	5	112	0.00	30.098 
09:35	41.1	41.1	41.1	64	29.9	2	5	135	0.00	30.098 
09:40	41.2	41.2	41.2	61	28.8	2	4	135	0.00	30.097 
09:45	41.3	41.3	41.3	60	28.5	2	5	112	0.00	30.096 
09:50	41.5	41.5	41.5	59	28.3	2	4	112	0.00	30.097 
09:55	41.8	41.8	41.8	59	28.5	2	5	112	0.00	30.096 
10:00	42.1	42.1	42.1	60	29.2	2	3	90	0.00	30.096 
10:05	42.3	42.3	42.3	58	28.6	2	5	112	0.00	30.097 
10:10	42.6	42.6	42.6	58	28.9	1	2	45	0.00	30.097 
10:15	42.6	42.6	42.6	55	27.6	1	5	22	0.00	30.096 
10:20	43.1	43.1	43.1	56	28.5	1	6	90	0.00	30.095 
10:25	43.3	43.3	43.3	52	26.9	3	9	112	0.00	30.092 
10:30	43.1	43.1	43.1	52	26.7	3	5	112	0.00	30.091 
10:35	43.1	43.1	43.1	54	27.6	1	6	112	0.00	30.087 
10:40	43.5	43.5	43.5	55	28.4	2	7	90	0.00	30.085 
10:45	43.6	43.6	43.6	53	27.6	3	8	90	0.00	30.082 
10:50	43.5	43.5	43.5	50	26.1	1	4	112	0.00	30.081 
10:55	43.3	43.3	43.3	51	26.4	1	5	90	0.00	30.082 
11:00	42.9	42.9	42.9	46	23.6	3	6	112	0.00	30.082 
11:05	42.6	42.6	42.6	51	25.8	2	6	90	0.00	30.084 
11:10	42.8	42.8	42.8	49	25.0	2	6	90	0.00	30.083 
11:15	42.3	42.3	42.3	50	25.0	1	3	90	0.00	30.081 
11:20	43.1	43.1	43.1	49	25.3	3	10	90	0.00	30.079 
11:25	43.3	43.3	43.3	47	24.4	3	7	112	0.00	30.077 
11:30	42.9	42.9	42.9	46	23.6	1	4	112	0.00	30.075 
11:35	42.8	42.8	42.8	47	24.0	0	4	112	0.00	30.071 
11:40	43.8	43.8	43.8	45	23.9	2	4	112	0.00	30.067 
11:45	44.9	44.9	44.9	40	22.1	2	5	248	0.00	30.065 
11:50	45.5	45.5	45.5	40	22.6	2	6	90	0.00	30.062 
11:55	45.5	45.5	45.5	40	22.6	2	6	90	0.00	30.057 
12:00	44.8	44.8	44.8	42	23.1	2	6	112	0.00	30.055 
12:05	43.9	43.9	43.9	42	22.3	2	5	112	0.00	30.055 
12:10	44.1	44.1	44.1	41	21.9	2	6	112	0.00	30.054 
12:15	44.9	43.0	44.9	44	24.3	4	8	112	0.00	30.053 
12:20	45.7	45.7	45.7	43	24.5	1	4	112	0.00	30.050 
12:25	46.0	44.2	46.0	43	24.8	4	10	112	0.00	30.048 
12:30	46.2	46.2	46.2	46	26.6	3	5	22	0.00	30.048 
12:35	46.5	46.5	46.5	44	25.8	2	6	112	0.00	30.047 
12:40	46.0	46.0	46.0	39	22.4	3	7	112	0.00	30.043 
12:45	45.4	45.4	45.4	39	21.9	3	7	112	0.00	30.045 
12:50	45.4	45.4	45.4	40	22.5	2	6	112	0.00	30.043 
12:55	46.0	46.0	46.0	37	21.2	2	6	112	0.00	30.041 
13:00	46.5	46.5	46.5	40	23.5	2	6	112	0.00	30.038 
13:05	47.3	47.3	47.3	38	23.0	3	7	90	0.00	30.037 
13:10	47.4	47.4	47.4	40	24.3	2	6	90	0.00	30.034 
13:15	48.0	48.0	48.0	39	24.2	2	6	90	0.00	30.031 
13:20	47.6	47.6	47.6	38	23.3	2	6	112	0.00	30.031 
13:25	47.3	47.3	47.3	36	21.7	1	3	90	0.00	30.032 
13:30	46.8	46.8	46.8	35	20.6	2	6	90	0.00	30.028 
13:35	46.5	46.5	46.5	35	20.3	2	10	112	0.00	30.025 
13:40	45.8	45.8	45.8	39	22.3	3	6	112	0.00	30.023 
13:45	45.8	45.8	45.8	38	21.7	3	10	112	0.00	30.021 
13:50	46.1	46.1	46.1	40	23.1	3	7	90	0.00	30.019 
13:55	47.0	45.4	47.0	39	23.3	4	11	90	0.00	30.019 
14:00	47.6	47.6	47.6	34	20.6	3	7	90	0.00	30.018 
14:05	47.9	47.9	47.9	35	21.6	3	8	112	0.00	30.018 
14:10	47.7	47.7	47.7	37	22.7	3	7	90	0.00	30.017 
14:15	48.0	48.0	48.0	35	21.7	3	8	112	0.00	30.017 
14:20	47.3	45.8	47.3	36	21.7	4	11	112	0.00	30.014 
14:25	47.6	47.6	47.6	35	21.3	2	6	112	0.00	30.013 
14:30	48.5	48.5	48.5	38	24.1	1	4	90	0.00	30.008 
14:35	48.3	48.3	48.3	36	22.6	3	8	112	0.00	30.006 
14:40	47.6	46.1	47.6	35	21.3	4	10	112	0.00	30.005 
14:45	47.1	47.1	47.1	34	20.2	2	6	112	0.00	30.006 
14:50	46.4	44.7	46.4	35	20.3	4	11	112	0.00	30.006 
14:55	46.2	46.2	46.2	36	20.7	3	6	112	0.00	30.005 
15:00	46.7	45.1	46.7	36	21.2	4	11	90	0.00	30.006 
15:05	46.5	46.5	46.5	36	21.0	3	7	90	0.00	30.006 
15:10	47.1	47.1	47.1	39	23.4	1	3	112	0.00	30.002 
15:15	48.0	48.0	48.0	36	22.3	2	6	112	0.00	30.001 
15:20	48.0	48.0	48.0	35	21.7	2	6	135	0.00	30.004 
15:25	48.0	48.0	48.0	33	20.3	2	4	112	0.00	30.002 
15:30	48.3	48.3	48.3	35	21.9	1	3	112	0.00	29.997 
15:35	48.6	48.6	48.6	35	22.2	3	10	112	0.00	29.991 
15:40	48.2	46.8	48.2	37	23.2	4	11	90	0.00	29.991 
15:45	48.0	48.0	48.0	35	21.7	2	11	68	0.00	29.990 
15:50	47.7	47.7	47.7	35	21.4	3	6	112	0.00	29.990 
15:55	47.6	47.6	47.6	35	21.3	2	7	90	0.00	29.989 
16:00	47.7	45.5	47.7	35	21.4	5	11	112	0.00	29.989 
16:05	48.0	48.0	48.0	34	21.0	3	9	112	0.00	29.988 
16:10	47.9	47.9	47.9	34	20.9	2	6	90	0.00	29.984 
16:15	47.9	47.9	47.9	34	20.9	3	10	112	0.00	29.981 
16:20	47.9	47.9	47.9	33	20.2	3	6	90	0.00	29.978 
16:25	48.0	46.6	48.0	36	22.3	4	7	112	0.00	29.977 
16:30	48.0	48.0	48.0	35	21.7	3	10	112	0.00	29.974 
16:35	48.0	46.6	48.0	33	20.3	4	11	112	0.00	29.975 
16:40	47.7	47.7	47.7	33	20.0	3	10	112	0.00	29.973 
16:45	47.6	47.6	47.6	33	19.9	3	6	112	0.00	29.969 
16:50	47.6	47.6	47.6	35	21.3	3	9	112	0.00	29.965 
16:55	47.7	46.2	47.7	36	22.1	4	10	112	0.00	29.963 
17:00	47.6	46.1	47.6	35	21.3	4	9	112	0.00	29.961 
17:05	47.3	45.8	47.3	35	21.0	4	8	112	0.00	29.965 
17:10	47.1	44.8	47.1	35	20.9	5	10	112	0.00	29.964 
17:15	47.1	45.5	47.1	35	20.9	4	7	112	0.00	29.964 
17:20	47.1	47.1	47.1	35	20.9	3	6	112	0.00	29.963 
17:25	47.3	45.8	47.3	35	21.0	4	10	112	0.00	29.964 
17:30	47.6	47.6	47.6	35	21.3	3	7	112	0.00	29.963 
17:35	47.4	47.4	47.4	36	21.8	3	5	112	0.00	29.967 
17:40	47.3	47.3	47.3	35	21.0	3	6	112	0.00	29.967 
17:45	47.1	47.1	47.1	35	20.9	2	6	90	0.00	29.969 
17:50	47.0	47.0	47.0	36	21.4	3	7	112	0.00	29.968 
17:55	46.8	45.2	46.8	35	20.6	4	9	112	0.00	29.964 
18:00	46.7	45.1	46.7	36	21.2	4	9	112	0.00	29.964 
18:05	46.7	46.7	46.7	37	21.8	3	5	112	0.00	29.963 
18:10	46.5	44.8	46.5	36	21.0	4	8	112	0.00	29.963 
18:15	46.4	46.4	46.4	37	21.6	3	7	112	0.00	29.961 
18:20	46.1	43.6	46.1	37	21.3	5	11	112	0.00	29.959 
18:25	45.8	45.8	45.8	37	21.0	3	8	112	0.00	29.958 
18:30	45.5	43.7	45.5	38	21.4	4	7	90	0.00	29.957 
18:35	45.2	43.3	45.2	38	21.1	4	8	90	0.00	29.956 
18:40	45.1	45.1	45.1	39	21.6	3	7	112	0.00	29.951 
18:45	44.9	44.9	44.9	41	22.6	3	11	90	0.00	29.947 
18:50	44.6	41.9	44.6	40	21.8	5	11	90	0.00	29.946 
18:55	44.5	42.5	44.5	41	22.3	4	9	90	0.00	29.947 
19:00	44.2	44.2	44.2	42	22.6	3	7	112	0.00	29.947 
19:05	43.9	43.9	43.9	42	22.3	3	6	112	0.00	29.935 
19:10	43.8	43.8	43.8	43	22.8	2	6	112	0.00	29.934 
19:15	43.5	41.4	43.5	43	22.5	4	6	90	0.00	29.932 
19:20	43.2	43.2	43.2	45	23.3	3	6	112	0.00	29.935 
19:25	42.9	42.9	42.9	46	23.6	3	6	90	0.00	29.937 
19:30	42.6	42.6	42.6	47	23.8	3	7	90	0.00	29.936 
19:35	42.3	42.3	42.3	47	23.5	3	6	90	0.00	29.937 
19:40	42.2	42.2	42.2	47	23.4	2	6	112	0.00	29.940 
19:45	42.1	42.1	42.1	48	23.8	3	6	112	0.00	29.939 
19:50	42.1	42.1	42.1	47	23.3	3	5	90	0.00	29.938 
19:55	41.8	41.8	41.8	48	23.6	3	6	112	0.00	29.939 
20:00	41.8	41.8	41.8	48	23.6	3	6	112	0.00	29.942 
20:05	41.8	41.8	41.8	48	23.6	3	6	90	0.00	29.938 
20:10	41.8	39.4	41.8	48	23.6	4	9	90	0.00	29.943 
20:15	41.8	39.4	41.8	47	23.1	4	10	112	0.00	29.944 
20:20	41.8	41.8	41.8	47	23.1	3	6	112	0.00	29.950 
20:25	41.8	39.4	41.8	48	23.6	4	9	112	0.00	29.951 
20:30	41.8	41.8	41.8	48	23.6	3	6	90	0.00	29.951 
20:35	41.6	41.6	41.6	49	23.9	3	6	112	0.00	29.952 
20:40	41.5	41.5	41.5	49	23.8	2	5	112	0.00	29.954 
20:45	41.3	41.3	41.3	49	23.6	3	6	112	0.00	29.955 
20:50	41.2	41.2	41.2	50	24.0	3	6	112	0.00	29.955 
20:55	41.1	38.6	41.1	50	23.9	4	7	112	0.00	29.955 
21:00	40.9	38.4	40.9	50	23.7	4	7	112	0.00	29.955 
21:05	40.8	40.8	40.8	51	24.1	3	6	112	0.00	29.953 
21:10	40.6	40.6	40.6	51	23.9	3	6	112	0.00	29.951 
21:15	40.6	38.0	40.6	51	23.9	4	10	112	0.00	29.950 
21:20	40.6	38.0	40.6	52	24.4	4	9	112	0.00	29.948 
21:25	40.5	37.9	40.5	52	24.3	4	9	112	0.00	29.949 
21:30	40.1	37.4	40.1	55	25.2	4	8	112	0.00	29.949 
21:35	39.5	35.9	39.5	58	26.0	5	11	112	0.00	29.948 
21:40	39.1	35.4	39.1	60	26.4	5	11	112	0.00	29.949 
21:45	38.9	34.4	38.9	61	26.6	6	15	90	0.00	29.943 
21:50	38.9	34.4	38.9	61	26.6	6	13	90	0.00	29.939 
21:55	39.1	34.1	39.1	61	26.8	7	13	90	0.00	29.937 
22:00	39.1	34.7	39.1	60	26.4	6	12	112	0.00	29.935 
22:05	39.1	34.1	39.1	59	26.0	7	14	112	0.00	29.935 
22:10	39.1	35.4	39.1	59	26.0	5	10	112	0.00	29.934 
22:15	39.1	34.7	39.1	59	26.0	6	13	112	0.00	29.932 
22:20	38.9	34.4	38.9	59	25.8	6	11	112	0.00	29.923 
22:25	38.9	34.4	38.9	59	25.8	6	14	112	0.00	29.925 
22:30	38.8	34.3	38.8	59	25.7	6	13	112	0.00	29.924 
22:35	38.8	35.1	38.8	59	25.7	5	11	112	0.00	29.926 
22:40	38.6	34.1	38.6	59	25.5	6	12	112	0.00	29.927 
22:45	38.5	34.7	38.5	59	25.4	5	12	112	0.00	29.930 
22:50	38.5	35.6	38.5	62	26.6	4	7	112	0.00	29.924 
22:55	38.3	33.7	38.3	58	24.8	6	11	112	0.00	29.924 
23:00	38.2	34.4	38.2	58	24.7	5	9	90	0.00	29.924 
23:05	38.0	34.1	38.0	59	25.0	5	11	112	0.00	29.921 
23:10	37.9	34.0	37.9	58	24.5	5	10	112	0.00	29.921 
23:15	37.8	33.9	37.8	58	24.4	5	11	90	0.00	29.920 
23:20	37.6	33.7	37.6	58	24.2	5	11	90	0.00	29.920 
23:25	37.3	34.2	37.3	59	24.3	4	13	90	0.00	29.919 
23:30	37.2	34.1	37.2	59	24.2	4	7	112	0.00	29.918 
23:35	37.0	32.9	37.0	59	24.0	5	11	112	0.00	29.918 
23:40	37.0	32.9	37.0	58	23.6	5	13	112	0.00	29.918 
23:45	36.9	33.7	36.9	58	23.5	4	7	90	0.00	29.918 
23:50	36.8	32.7	36.8	58	23.4	5	10	112	0.00	29.917 
23:55	36.6	32.5	36.6	58	23.2	5	10	112	0.00	29.914 

CoCoRaHS
IN-AL-39
A2 Web Hosting
Creative Commons License
GoDaddy
Look for:

loaded 2017-12-10 21:25:49 • last modified 2010-11-18 10:43:29
Privacy PolicyDisclaimer
• wx.awcolley.com is powered by PmWiki v.2002016 •
• all content (unless otherwise noted) © 2017 A W Colley